Time;durP1;ratioP1;P1;durP2;ratioP2;P2;SDS_P1;SDS_P2;PMS_P1;PMS_P2;Temp;Humidity;BMP_temperature;BMP_pressure;BME280_temperature;BME280_humidity;BME280_pressure;Samples;Min_cycle;Max_cycle;Signal;HPM_P1;HPM_P2
2021/01/11 00:01:59;;;;;;;22.77;19.03;;;2.10;99.90;;;;;;5073234;28;20443;-67
2021/01/11 00:04:25;;;;;;;19.83;17.90;;;2.10;99.90;;;;;;5072663;28;20502;-67
2021/01/11 00:06:54;;;;;;;21.60;19.30;;;2.00;99.90;;;;;;5072767;28;20431;-67
2021/01/11 00:09:21;;;;;;;22.83;20.43;;;2.00;99.90;;;;;;5073094;28;20537;-68
2021/01/11 00:11:47;;;;;;;23.33;18.37;;;1.90;99.90;;;;;;5073290;28;20937;-67
2021/01/11 00:14:14;;;;;;;21.30;18.37;;;1.90;99.90;;;;;;5073469;28;20468;-67
2021/01/11 00:16:40;;;;;;;21.37;18.43;;;1.90;99.90;;;;;;5073607;28;20486;-68
2021/01/11 00:19:06;;;;;;;21.27;19.00;;;1.90;99.90;;;;;;5073631;28;20422;-68
2021/01/11 00:21:33;;;;;;;20.90;18.63;;;1.90;99.90;;;;;;5073405;28;20439;-68
2021/01/11 00:24:01;;;;;;;22.43;18.03;;;1.90;99.90;;;;;;5073441;28;20478;-68
2021/01/11 00:26:27;;;;;;;20.60;18.37;;;1.90;99.90;;;;;;5073527;28;20435;-68
2021/01/11 00:28:53;;;;;;;22.10;17.73;;;1.90;99.90;;;;;;5073278;28;20453;-68
2021/01/11 00:31:23;;;;;;;25.57;21.17;;;1.80;99.90;;;;;;5072307;28;20443;-68
2021/01/11 00:33:50;;;;;;;28.67;18.13;;;1.70;99.90;;;;;;5072218;28;20777;-68
2021/01/11 00:36:16;;;;;;;23.53;19.63;;;1.70;99.90;;;;;;5072241;28;20486;-68
2021/01/11 00:38:43;;;;;;;23.80;19.53;;;1.60;99.90;;;;;;5072132;28;20443;-66
2021/01/11 00:41:16;;;;;;;21.97;17.80;;;1.60;99.90;;;;;;5072217;28;20787;-68
2021/01/11 00:43:42;;;;;;;20.57;18.37;;;1.60;99.90;;;;;;5072068;28;20467;-67
2021/01/11 00:46:08;;;;;;;19.83;17.67;;;1.60;99.90;;;;;;5072022;28;20949;-67
2021/01/11 00:48:35;;;;;;;21.67;19.37;;;1.50;99.90;;;;;;5071996;28;20504;-67
2021/01/11 00:51:01;;;;;;;19.63;17.43;;;1.60;99.90;;;;;;5072149;28;20858;-67
2021/01/11 00:53:27;;;;;;;18.20;16.20;;;1.60;99.90;;;;;;5072302;28;20500;-68
2021/01/11 00:55:53;;;;;;;21.90;17.60;;;1.60;99.90;;;;;;5071994;28;20475;-67
2021/01/11 00:58:20;;;;;;;22.00;18.00;;;1.70;99.90;;;;;;5072765;28;20450;-68
2021/01/11 01:00:48;;;;;;;22.37;18.23;;;1.70;99.90;;;;;;5073861;28;20512;-68
2021/01/11 01:03:14;;;;;;;21.77;17.70;;;1.80;99.90;;;;;;5074278;28;20490;-68
2021/01/11 01:05:40;;;;;;;20.37;18.10;;;1.80;99.90;;;;;;5073746;28;20435;-69
2021/01/11 01:08:06;;;;;;;21.90;17.47;;;1.90;99.90;;;;;;5073960;28;20945;-68
2021/01/11 01:10:32;;;;;;;23.57;18.27;;;1.90;99.90;;;;;;5073441;28;20447;-69
2021/01/11 01:12:59;;;;;;;23.47;18.47;;;2.00;99.90;;;;;;5073402;28;20812;-67
2021/01/11 01:15:26;;;;;;;20.30;16.93;;;2.10;99.90;;;;;;5073366;28;20984;-68
2021/01/11 01:17:52;;;;;;;22.67;17.03;;;2.20;99.90;;;;;;5073527;28;20466;-69
2021/01/11 01:20:18;;;;;;;17.80;15.90;;;2.20;99.90;;;;;;5071850;28;20974;-67
2021/01/11 01:22:45;;;;;;;18.90;16.90;;;2.20;99.90;;;;;;5071496;28;20813;-67
2021/01/11 01:25:12;;;;;;;22.30;18.57;;;2.20;99.90;;;;;;5071447;28;20489;-67
2021/01/11 01:27:39;;;;;;;18.20;16.43;;;2.20;99.90;;;;;;5071775;28;20444;-67
2021/01/11 01:30:08;;;;;;;18.67;16.53;;;2.20;99.90;;;;;;5071524;28;20785;-66
2021/01/11 01:32:35;;;;;;;18.70;16.70;;;2.20;99.90;;;;;;5071705;28;20445;-67
2021/01/11 01:35:02;;;;;;;20.33;17.40;;;2.20;99.90;;;;;;5071697;28;20463;-67
2021/01/11 01:37:29;;;;;;;23.90;17.73;;;2.20;99.90;;;;;;5071715;28;20486;-68
2021/01/11 01:39:55;;;;;;;19.93;17.87;;;2.20;99.90;;;;;;5072003;28;20520;-69
2021/01/11 01:42:21;;;;;;;20.77;17.20;;;2.20;99.90;;;;;;5072047;28;20473;-69
2021/01/11 01:44:47;;;;;;;21.40;17.57;;;2.20;99.90;;;;;;5072218;28;20732;-68
2021/01/11 01:47:14;;;;;;;19.73;17.70;;;2.20;99.90;;;;;;5072398;28;20439;-67
2021/01/11 01:49:41;;;;;;;18.40;16.70;;;2.20;99.90;;;;;;5071701;28;20907;-69
2021/01/11 01:52:09;;;;;;;18.03;16.10;;;2.20;99.90;;;;;;5071567;28;20439;-69
2021/01/11 01:54:35;;;;;;;22.03;17.70;;;2.30;99.90;;;;;;5071955;28;20824;-69
2021/01/11 01:57:03;;;;;;;19.77;17.80;;;2.30;99.90;;;;;;5072568;28;20493;-69
2021/01/11 01:59:29;;;;;;;17.17;15.47;;;2.30;99.90;;;;;;5073008;28;20447;-69
2021/01/11 02:01:56;;;;;;;18.70;16.83;;;2.30;99.90;;;;;;5070895;28;20443;-66
2021/01/11 02:04:22;;;;;;;18.10;16.30;;;2.30;99.90;;;;;;5070897;28;20486;-67
2021/01/11 02:06:56;;;;;;;18.77;16.93;;;2.30;99.90;;;;;;5071236;28;20435;-67
2021/01/11 02:09:31;;;;;;;18.67;16.80;;;2.40;99.90;;;;;;5071209;28;20451;-67
2021/01/11 02:12:06;;;;;;;18.87;16.87;;;2.30;99.90;;;;;;5071127;28;20447;-67
2021/01/11 02:14:41;;;;;;;18.03;16.23;;;2.30;99.90;;;;;;5070962;28;20463;-67
2021/01/11 02:17:13;;;;;;;19.50;17.47;;;2.30;99.90;;;;;;5070989;28;20924;-66
2021/01/11 02:20:15;;;;;;;20.10;18.27;;;2.30;99.90;;;;;;5070917;28;20522;-66
2021/01/11 02:22:58;;;;;;;21.03;18.93;;;2.30;99.90;;;;;;5071456;28;20468;-68
2021/01/11 02:25:40;;;;;;;20.47;18.13;;;2.30;99.90;;;;;;5071281;28;20459;-69
2021/01/11 02:28:20;;;;;;;22.70;19.00;;;2.30;99.90;;;;;;5071247;28;20465;-68
2021/01/11 02:30:49;;;;;;;27.30;20.03;;;2.30;99.90;;;;;;5070972;28;20949;-69
2021/01/11 02:33:17;;;;;;;18.30;16.37;;;2.30;99.90;;;;;;5071303;28;20443;-68
2021/01/11 02:35:59;;;;;;;19.87;17.90;;;2.30;99.90;;;;;;5070965;28;20483;-67
2021/01/11 02:38:27;;;;;;;23.40;19.40;;;2.40;99.90;;;;;;5071103;28;20443;-69
2021/01/11 02:40:54;;;;;;;20.43;18.33;;;2.40;99.90;;;;;;5070934;28;20443;-68
2021/01/11 02:43:20;;;;;;;19.27;17.33;;;2.40;99.90;;;;;;5071339;28;20797;-68
2021/01/11 02:45:47;;;;;;;18.63;16.70;;;2.40;99.90;;;;;;5070649;28;20987;-67
2021/01/11 02:48:20;;;;;;;31.23;19.10;;;2.30;99.90;;;;;;5070699;28;20439;-68
2021/01/11 02:50:54;;;;;;;20.17;18.20;;;2.40;99.90;;;;;;5070614;28;20967;-67
2021/01/11 02:53:34;;;;;;;20.03;18.13;;;2.40;99.90;;;;;;5071206;28;20443;-67
2021/01/11 02:56:03;;;;;;;21.93;18.07;;;2.40;99.90;;;;;;5074161;28;20474;-67
2021/01/11 02:58:42;;;;;;;22.67;18.53;;;2.40;99.90;;;;;;5074082;28;20435;-66
2021/01/11 03:01:12;;;;;;;19.63;17.63;;;2.40;99.90;;;;;;5073949;28;20915;-66
2021/01/11 03:03:39;;;;;;;18.70;16.93;;;2.40;99.90;;;;;;5073930;28;20475;-67
2021/01/11 03:06:11;;;;;;;21.57;19.57;;;2.40;99.90;;;;;;5074082;28;20458;-67
2021/01/11 03:08:37;;;;;;;19.43;17.53;;;2.40;99.90;;;;;;5074054;28;20451;-66
2021/01/11 03:11:03;;;;;;;28.63;19.50;;;2.50;99.90;;;;;;5074013;28;20815;-68
2021/01/11 03:13:29;;;;;;;19.13;17.30;;;2.50;99.90;;;;;;5075367;28;20807;-68
2021/01/11 03:15:56;;;;;;;18.57;16.87;;;2.50;99.90;;;;;;5075405;28;20479;-68
2021/01/11 03:18:23;;;;;;;18.57;16.30;;;2.50;99.90;;;;;;5075818;28;20443;-68
2021/01/11 03:20:49;;;;;;;19.63;17.93;;;2.50;99.90;;;;;;5074091;28;20450;-67
2021/01/11 03:23:15;;;;;;;19.17;17.20;;;2.40;99.90;;;;;;5073646;28;20454;-67
2021/01/11 03:25:42;;;;;;;17.60;15.73;;;2.50;99.90;;;;;;5074667;28;20439;-68
2021/01/11 03:28:08;;;;;;;19.87;17.70;;;2.40;99.90;;;;;;5074389;28;20968;-68
2021/01/11 03:30:35;;;;;;;19.00;17.00;;;2.40;99.90;;;;;;5073817;28;20472;-68
2021/01/11 03:33:01;;;;;;;26.67;19.00;;;2.30;99.90;;;;;;5074479;28;20475;-68
2021/01/11 03:35:28;;;;;;;19.60;17.60;;;2.40;99.90;;;;;;5074225;28;20462;-68
2021/01/11 03:37:54;;;;;;;21.30;19.27;;;2.30;99.90;;;;;;5074837;28;20651;-68
2021/01/11 03:40:21;;;;;;;23.57;21.07;;;2.30;99.90;;;;;;5074791;28;20443;-67
2021/01/11 03:42:47;;;;;;;25.23;21.53;;;2.30;99.90;;;;;;5074195;28;20443;-67
2021/01/11 03:45:14;;;;;;;26.57;22.90;;;2.30;99.90;;;;;;5073567;28;20466;-68
2021/01/11 03:47:41;;;;;;;27.10;22.90;;;2.30;99.90;;;;;;5074270;28;20449;-69
2021/01/11 03:50:08;;;;;;;25.07;22.40;;;2.30;99.90;;;;;;5074408;28;20996;-67
2021/01/11 03:52:36;;;;;;;27.57;23.37;;;2.20;99.90;;;;;;5073777;28;20948;-67
2021/01/11 03:55:03;;;;;;;26.70;23.53;;;2.20;99.90;;;;;;5073259;28;20880;-69
2021/01/11 03:57:30;;;;;;;26.00;22.70;;;2.20;99.90;;;;;;5073159;28;20494;-66
2021/01/11 03:59:56;;;;;;;23.03;20.80;;;2.20;99.90;;;;;;5073164;28;21017;-68
2021/01/11 04:02:23;;;;;;;25.83;21.40;;;2.20;99.90;;;;;;5073188;28;20450;-67
2021/01/11 04:04:49;;;;;;;28.17;22.33;;;2.20;99.90;;;;;;5072299;28;20479;-66
2021/01/11 04:07:16;;;;;;;26.70;22.33;;;2.20;99.90;;;;;;5072817;28;20443;-67
2021/01/11 04:09:43;;;;;;;27.33;22.73;;;2.20;99.90;;;;;;5072624;28;20435;-67
2021/01/11 04:12:09;;;;;;;28.33;21.10;;;2.30;99.90;;;;;;5072677;28;20504;-66
2021/01/11 04:14:36;;;;;;;25.87;20.80;;;2.30;99.90;;;;;;5072572;28;20459;-67
2021/01/11 04:17:02;;;;;;;25.30;22.30;;;2.30;99.90;;;;;;5072641;28;20479;-67
2021/01/11 04:19:28;;;;;;;24.23;20.20;;;2.30;99.90;;;;;;5072519;28;20960;-67
2021/01/11 04:21:54;;;;;;;22.90;20.33;;;2.30;99.90;;;;;;5072302;28;20451;-67
2021/01/11 04:24:21;;;;;;;26.00;21.33;;;2.30;99.90;;;;;;5072600;28;20474;-67
2021/01/11 04:26:48;;;;;;;24.43;21.87;;;2.30;99.90;;;;;;5072395;28;20431;-67
2021/01/11 04:29:14;;;;;;;28.10;23.53;;;2.30;99.90;;;;;;5072566;28;20447;-67
2021/01/11 04:31:40;;;;;;;32.00;25.63;;;2.30;99.90;;;;;;5072234;28;20447;-67
2021/01/11 04:34:06;;;;;;;31.07;25.30;;;2.20;99.90;;;;;;5072245;28;20875;-66
2021/01/11 04:36:33;;;;;;;28.60;25.50;;;2.20;99.90;;;;;;5072725;28;20479;-68
2021/01/11 04:39:00;;;;;;;39.77;28.20;;;2.20;99.90;;;;;;5073888;28;20454;-68
2021/01/11 04:41:33;;;;;;;40.97;28.83;;;2.20;99.90;;;;;;5072754;28;20449;-68
2021/01/11 04:44:06;;;;;;;34.33;28.60;;;2.20;99.90;;;;;;5072106;28;20965;-67
2021/01/11 04:46:32;;;;;;;37.27;30.33;;;2.20;99.90;;;;;;5072108;28;20500;-66
2021/01/11 04:48:59;;;;;;;36.20;28.13;;;2.20;99.90;;;;;;5072031;28;20573;-67
2021/01/11 04:51:25;;;;;;;34.00;29.87;;;2.20;99.90;;;;;;5071681;28;20448;-67
2021/01/11 04:53:53;;;;;;;42.13;28.33;;;2.10;99.90;;;;;;5071904;28;20466;-67
2021/01/11 04:56:20;;;;;;;43.30;30.00;;;2.10;99.90;;;;;;5071756;28;20505;-67
2021/01/11 04:58:57;;;;;;;33.13;27.73;;;2.10;99.90;;;;;;5071893;28;20492;-68
2021/01/11 05:01:26;;;;;;;38.03;30.53;;;2.10;99.90;;;;;;5073590;28;20455;-68
2021/01/11 05:03:57;;;;;;;31.70;26.77;;;2.10;99.90;;;;;;5073415;28;20570;-68
2021/01/11 05:06:24;;;;;;;30.73;26.20;;;2.10;99.90;;;;;;5072344;28;20508;-66
2021/01/11 05:08:50;;;;;;;30.00;23.70;;;2.10;99.90;;;;;;5072498;28;20443;-68
2021/01/11 05:11:16;;;;;;;30.00;26.17;;;2.10;99.90;;;;;;5072619;28;20439;-67
2021/01/11 05:13:42;;;;;;;29.97;26.83;;;2.10;99.90;;;;;;5071574;28;20462;-67
2021/01/11 05:16:13;;;;;;;29.43;26.30;;;2.10;99.90;;;;;;5070783;28;20497;-67
2021/01/11 05:18:41;;;;;;;34.13;27.43;;;2.10;99.90;;;;;;5071577;28;20447;-66
2021/01/11 05:21:07;;;;;;;43.07;27.07;;;2.10;99.90;;;;;;5071235;28;21006;-66
2021/01/11 05:23:37;;;;;;;36.23;29.07;;;2.10;99.90;;;;;;5071497;28;20443;-67
2021/01/11 05:26:14;;;;;;;29.00;25.90;;;2.10;99.90;;;;;;5071378;28;20461;-68
2021/01/11 05:28:41;;;;;;;31.10;25.80;;;2.10;99.90;;;;;;5071344;28;20442;-66
2021/01/11 05:31:07;;;;;;;33.57;27.57;;;2.10;99.90;;;;;;5071162;28;20450;-67
2021/01/11 05:33:33;;;;;;;32.83;29.37;;;2.20;99.90;;;;;;5071305;28;20451;-66
2021/01/11 05:36:09;;;;;;;34.60;27.40;;;2.20;99.90;;;;;;5071400;28;20525;-67
2021/01/11 05:38:37;;;;;;;37.87;29.00;;;2.30;99.90;;;;;;5071148;28;20546;-68
2021/01/11 05:41:14;;;;;;;35.47;31.17;;;2.20;99.90;;;;;;5072123;28;20530;-68
2021/01/11 05:43:40;;;;;;;32.43;28.90;;;2.30;99.90;;;;;;5071232;28;20644;-69
2021/01/11 05:46:23;;;;;;;31.20;25.60;;;2.30;99.90;;;;;;5071115;28;20439;-68
2021/01/11 05:48:57;;;;;;;30.70;27.80;;;2.30;99.90;;;;;;5070994;28;20503;-69
2021/01/11 05:51:25;;;;;;;34.50;28.33;;;2.30;99.90;;;;;;5071050;28;20508;-69
2021/01/11 05:53:51;;;;;;;32.63;29.20;;;2.40;99.90;;;;;;5071142;28;20459;-67
2021/01/11 05:56:17;;;;;;;30.17;26.90;;;2.30;99.90;;;;;;5071069;28;20482;-67
2021/01/11 05:59:02;;;;;;;31.27;28.00;;;2.30;99.90;;;;;;5071023;28;20447;-67
2021/01/11 06:01:29;;;;;;;32.33;29.00;;;2.30;99.90;;;;;;5070871;28;20450;-68
2021/01/11 06:03:56;;;;;;;32.83;28.73;;;2.30;99.90;;;;;;5070829;28;20467;-67
2021/01/11 06:06:22;;;;;;;34.37;30.73;;;2.30;99.90;;;;;;5071124;28;20443;-67
2021/01/11 06:08:51;;;;;;;33.33;28.80;;;2.30;99.90;;;;;;5070854;28;20462;-67
2021/01/11 06:11:21;;;;;;;32.13;28.63;;;2.30;99.90;;;;;;5070804;28;20439;-67
2021/01/11 06:13:50;;;;;;;35.87;30.13;;;2.40;99.90;;;;;;5070866;28;20471;-67
2021/01/11 06:16:18;;;;;;;34.33;29.90;;;2.30;99.90;;;;;;5070821;28;20510;-67
2021/01/11 06:18:45;;;;;;;33.83;30.17;;;2.40;99.90;;;;;;5070815;28;20451;-68
2021/01/11 06:21:11;;;;;;;37.60;32.40;;;2.40;99.90;;;;;;5070730;28;20444;-69
2021/01/11 06:23:39;;;;;;;33.67;30.00;;;2.40;99.90;;;;;;5070721;28;20459;-68
2021/01/11 06:26:29;;;;;;;31.90;28.43;;;2.40;99.90;;;;;;5070749;28;20589;-66
2021/01/11 06:28:56;;;;;;;31.60;28.27;;;2.40;99.90;;;;;;5074036;28;20450;-68
2021/01/11 06:31:27;;;;;;;30.83;27.73;;;2.50;99.90;;;;;;5074292;28;20809;-68
2021/01/11 06:33:54;;;;;;;29.50;26.57;;;2.40;99.90;;;;;;5074447;28;20473;-68
2021/01/11 06:36:23;;;;;;;31.73;28.53;;;2.50;99.90;;;;;;5074507;28;20483;-69
2021/01/11 06:38:50;;;;;;;30.10;27.07;;;2.40;99.90;;;;;;5074528;28;20530;-68
2021/01/11 06:41:18;;;;;;;30.07;26.90;;;2.50;99.90;;;;;;5074424;28;20447;-68
2021/01/11 06:43:47;;;;;;;30.43;27.23;;;2.50;99.90;;;;;;5074155;28;20493;-69
2021/01/11 06:46:42;;;;;;;29.50;26.40;;;2.50;99.90;;;;;;5074229;28;20441;-68
2021/01/11 06:49:22;;;;;;;30.90;26.93;;;2.50;99.90;;;;;;5074030;28;20443;-68
2021/01/11 06:52:01;;;;;;;29.40;26.47;;;2.50;99.90;;;;;;5073913;28;20588;-68
2021/01/11 06:54:35;;;;;;;30.87;25.27;;;2.50;99.90;;;;;;5074152;28;20463;-68
2021/01/11 06:57:13;;;;;;;27.87;25.13;;;2.50;99.90;;;;;;5074121;28;20524;-69
2021/01/11 06:59:40;;;;;;;29.20;26.40;;;2.60;99.90;;;;;;5073861;28;20936;-68
2021/01/11 07:02:23;;;;;;;28.90;25.90;;;2.50;99.90;;;;;;5073881;28;20443;-68
2021/01/11 07:04:50;;;;;;;28.10;25.33;;;2.50;99.90;;;;;;5073710;28;20526;-68
2021/01/11 07:07:22;;;;;;;26.93;24.20;;;2.50;99.90;;;;;;5073953;28;20444;-68
2021/01/11 07:09:57;;;;;;;31.80;28.27;;;2.60;99.90;;;;;;5073640;28;20497;-67
2021/01/11 07:12:26;;;;;;;29.20;26.10;;;2.50;99.90;;;;;;5073896;28;20451;-68
2021/01/11 07:15:00;;;;;;;29.60;25.00;;;2.60;99.90;;;;;;5073753;28;20467;-68
2021/01/11 07:17:37;;;;;;;26.93;24.33;;;2.60;99.90;;;;;;5073664;28;21008;-67
2021/01/11 07:20:08;;;;;;;29.10;26.00;;;2.60;99.90;;;;;;5073575;28;20442;-70
2021/01/11 07:22:36;;;;;;;31.23;28.23;;;2.50;99.90;;;;;;5073803;28;20501;-69
2021/01/11 07:25:24;;;;;;;27.30;24.53;;;2.60;99.90;;;;;;5073550;28;20459;-69
2021/01/11 07:27:56;;;;;;;28.60;25.60;;;2.60;99.90;;;;;;5073634;28;20471;-68
2021/01/11 07:30:22;;;;;;;27.07;24.57;;;2.60;99.90;;;;;;5073344;28;20454;-68
2021/01/11 07:32:49;;;;;;;28.57;25.57;;;2.60;99.90;;;;;;5073492;28;20439;-68
2021/01/11 07:35:15;;;;;;;24.63;22.27;;;2.60;99.90;;;;;;5073368;28;20880;-68
2021/01/11 07:37:41;;;;;;;28.70;25.77;;;2.60;99.90;;;;;;5073217;28;20474;-66
2021/01/11 07:40:09;;;;;;;26.93;23.07;;;2.60;99.90;;;;;;5072064;28;20932;-67
2021/01/11 07:42:37;;;;;;;26.00;23.50;;;2.50;99.90;;;;;;5072988;28;20440;-67
2021/01/11 07:45:10;;;;;;;26.80;24.20;;;2.50;99.90;;;;;;5073180;28;20489;-68
2021/01/11 07:47:37;;;;;;;26.33;23.60;;;2.60;99.90;;;;;;5073191;28;20440;-68
2021/01/11 07:50:04;;;;;;;27.83;25.20;;;2.60;99.90;;;;;;5073010;28;20852;-68
2021/01/11 07:52:31;;;;;;;25.37;22.80;;;2.60;99.90;;;;;;5073040;28;20451;-68
2021/01/11 07:54:58;;;;;;;26.53;24.03;;;2.60;99.90;;;;;;5072930;28;20467;-67
2021/01/11 07:57:26;;;;;;;28.10;25.40;;;2.60;99.90;;;;;;5072940;28;20853;-67
2021/01/11 07:59:59;;;;;;;26.97;24.37;;;2.60;99.90;;;;;;5072657;28;20458;-67
2021/01/11 08:02:27;;;;;;;26.10;23.60;;;2.60;99.90;;;;;;5072920;28;20445;-67
2021/01/11 08:04:53;;;;;;;26.43;23.93;;;2.60;99.90;;;;;;5072709;28;20486;-67
2021/01/11 08:07:28;;;;;;;28.83;25.40;;;2.60;99.90;;;;;;5072889;28;20439;-68
2021/01/11 08:09:56;;;;;;;28.90;25.93;;;2.60;99.90;;;;;;5072362;28;20439;-68
2021/01/11 08:12:25;;;;;;;28.80;25.80;;;2.70;99.90;;;;;;5072735;28;20447;-68
2021/01/11 08:14:51;;;;;;;26.77;24.03;;;2.70;99.90;;;;;;5072780;28;20463;-67
2021/01/11 08:17:19;;;;;;;29.97;25.43;;;2.70;99.90;;;;;;5072843;28;20502;-68
2021/01/11 08:19:50;;;;;;;28.43;25.37;;;2.70;99.90;;;;;;5072468;28;20439;-68
2021/01/11 08:22:18;;;;;;;27.90;24.90;;;2.70;99.90;;;;;;5072603;28;20806;-67
2021/01/11 08:24:48;;;;;;;29.80;26.60;;;2.80;99.90;;;;;;5072227;28;20816;-67
2021/01/11 08:27:22;;;;;;;28.10;25.20;;;2.80;99.90;;;;;;5072572;28;20439;-68
2021/01/11 08:29:49;;;;;;;27.57;24.80;;;2.80;99.90;;;;;;5072227;28;20438;-67
2021/01/11 08:32:18;;;;;;;27.83;24.93;;;2.90;99.90;;;;;;5072261;28;20941;-68
2021/01/11 08:34:45;;;;;;;27.70;24.60;;;2.90;99.90;;;;;;5072258;28;20853;-68
2021/01/11 08:37:33;;;;;;;33.60;26.40;;;2.80;99.90;;;;;;5072089;28;20475;-68
2021/01/11 08:40:01;;;;;;;27.53;24.83;;;2.80;99.90;;;;;;5065824;28;20451;-68
2021/01/11 08:42:28;;;;;;;23.80;21.27;;;2.70;99.90;;;;;;5072191;28;20811;-67
2021/01/11 08:44:54;;;;;;;23.50;21.20;;;2.70;99.90;;;;;;5072129;28;20470;-68
2021/01/11 08:47:27;;;;;;;24.83;22.40;;;2.70;99.90;;;;;;5071929;28;20432;-68
2021/01/11 08:50:01;;;;;;;24.73;22.30;;;2.70;99.90;;;;;;5071760;28;20439;-67
2021/01/11 08:52:29;;;;;;;27.87;25.30;;;2.70;99.90;;;;;;5072054;28;20439;-68
2021/01/11 08:55:07;;;;;;;26.20;23.63;;;2.70;99.90;;;;;;5071646;28;20986;-67
2021/01/11 08:57:33;;;;;;;24.83;22.70;;;2.70;99.90;;;;;;5071857;28;20485;-68
2021/01/11 09:00:05;;;;;;;25.27;22.87;;;2.80;99.90;;;;;;5071559;28;20443;-67
2021/01/11 09:02:31;;;;;;;24.80;22.53;;;2.80;99.90;;;;;;5071765;28;20447;-68
2021/01/11 09:05:11;;;;;;;26.53;23.30;;;2.80;99.90;;;;;;5071585;28;20478;-68
2021/01/11 09:07:37;;;;;;;24.80;22.50;;;2.90;99.90;;;;;;5071881;28;20439;-68
2021/01/11 09:10:18;;;;;;;24.10;21.80;;;2.80;99.90;;;;;;5071533;28;20652;-68
2021/01/11 09:12:44;;;;;;;23.33;21.10;;;2.90;99.90;;;;;;5071736;28;20447;-67
2021/01/11 09:15:12;;;;;;;23.13;20.67;;;2.90;99.90;;;;;;5071506;28;20463;-68
2021/01/11 09:17:38;;;;;;;21.70;19.90;;;3.00;99.90;;;;;;5071729;28;20483;-68
2021/01/11 09:20:06;;;;;;;22.43;20.43;;;3.00;99.90;;;;;;5071396;28;20447;-67
2021/01/11 09:22:35;;;;;;;22.70;20.77;;;3.00;99.90;;;;;;5071691;28;20447;-68
2021/01/11 09:25:05;;;;;;;23.57;20.97;;;3.00;99.90;;;;;;5071398;28;20459;-68
2021/01/11 09:27:31;;;;;;;23.40;21.33;;;3.00;99.90;;;;;;5071519;28;20443;-67
2021/01/11 09:29:58;;;;;;;25.73;23.13;;;3.00;99.90;;;;;;5071138;28;20488;-68
2021/01/11 09:32:24;;;;;;;24.27;22.27;;;3.10;99.90;;;;;;5071456;28;20457;-68
2021/01/11 09:34:50;;;;;;;24.43;22.30;;;3.10;99.90;;;;;;5071130;28;20903;-69
2021/01/11 09:37:17;;;;;;;25.47;23.17;;;3.10;99.90;;;;;;5071259;28;20475;-66
2021/01/11 09:39:44;;;;;;;23.70;21.40;;;3.10;99.90;;;;;;5071251;28;20443;-68
2021/01/11 09:42:11;;;;;;;24.70;22.20;;;3.10;99.90;;;;;;5071472;28;20451;-68
2021/01/11 09:44:37;;;;;;;23.93;21.83;;;3.10;99.90;;;;;;5071190;28;20459;-68
2021/01/11 09:47:05;;;;;;;25.27;22.53;;;3.10;99.90;;;;;;5071278;28;20439;-68
2021/01/11 09:49:31;;;;;;;25.20;22.80;;;3.10;99.90;;;;;;5071117;28;20450;-65
2021/01/11 09:51:58;;;;;;;22.73;20.83;;;3.10;99.90;;;;;;5070990;28;20450;-67
2021/01/11 09:54:24;;;;;;;22.87;20.63;;;3.20;99.90;;;;;;5071090;28;20470;-68
2021/01/11 09:56:50;;;;;;;27.60;24.03;;;3.20;99.90;;;;;;5071232;28;20884;-67
2021/01/11 09:59:18;;;;;;;24.30;22.20;;;3.20;99.90;;;;;;5071224;28;20439;-69
2021/01/11 10:01:45;;;;;;;23.60;21.30;;;3.20;99.90;;;;;;5071118;28;21019;-67
2021/01/11 10:04:14;;;;;;;23.10;20.90;;;3.30;99.90;;;;;;5074605;28;20486;-67
2021/01/11 10:06:42;;;;;;;24.37;21.97;;;3.30;99.90;;;;;;5075083;28;20939;-67
2021/01/11 10:09:10;;;;;;;24.77;22.47;;;3.40;99.90;;;;;;5075010;28;20447;-68
2021/01/11 10:11:36;;;;;;;23.50;21.13;;;3.40;99.90;;;;;;5074672;28;20439;-68
2021/01/11 10:14:03;;;;;;;23.80;21.70;;;3.50;99.90;;;;;;5075010;28;20520;-67
2021/01/11 10:16:30;;;;;;;23.53;21.33;;;3.50;99.90;;;;;;5074757;28;20479;-68
2021/01/11 10:18:57;;;;;;;23.07;21.17;;;3.50;99.90;;;;;;5074803;28;20439;-68
2021/01/11 10:21:24;;;;;;;21.37;19.57;;;3.60;99.90;;;;;;5074737;28;20439;-67
2021/01/11 10:23:50;;;;;;;22.57;20.37;;;3.50;99.90;;;;;;5074809;28;20831;-67
2021/01/11 10:26:17;;;;;;;20.83;19.13;;;3.50;99.90;;;;;;5074812;28;20450;-68
2021/01/11 10:28:44;;;;;;;21.10;19.30;;;3.50;99.90;;;;;;5074606;28;20941;-67
2021/01/11 10:31:10;;;;;;;18.97;17.27;;;3.50;99.90;;;;;;5074471;28;20504;-67
2021/01/11 10:33:37;;;;;;;19.47;18.00;;;3.40;99.90;;;;;;5074540;28;20473;-67
2021/01/11 10:36:04;;;;;;;18.43;16.80;;;3.30;99.90;;;;;;5075063;28;20443;-67
2021/01/11 10:38:31;;;;;;;19.00;17.57;;;3.30;99.90;;;;;;5074519;28;20452;-67
2021/01/11 10:40:57;;;;;;;19.10;17.40;;;3.30;99.90;;;;;;5074431;28;20925;-67
2021/01/11 10:43:24;;;;;;;18.90;17.60;;;3.30;99.90;;;;;;5074589;28;20465;-68
2021/01/11 10:45:50;;;;;;;18.13;16.63;;;3.30;99.90;;;;;;5074489;28;20454;-69
2021/01/11 10:48:16;;;;;;;17.90;16.50;;;3.30;99.90;;;;;;5074419;28;20443;-68
2021/01/11 10:50:43;;;;;;;17.50;16.30;;;3.30;99.90;;;;;;5074422;28;20443;-68
2021/01/11 10:53:10;;;;;;;17.97;16.70;;;3.30;99.90;;;;;;5074564;28;20469;-68
2021/01/11 10:55:36;;;;;;;16.77;15.67;;;3.30;99.90;;;;;;5074501;28;20517;-68
2021/01/11 10:58:02;;;;;;;18.57;17.07;;;3.30;99.90;;;;;;5074408;28;20548;-68
2021/01/11 11:00:28;;;;;;;17.53;16.23;;;3.30;99.90;;;;;;5074163;28;20799;-69
2021/01/11 11:02:55;;;;;;;17.40;16.10;;;3.30;99.90;;;;;;5074263;28;20447;-66
2021/01/11 11:05:21;;;;;;;19.80;18.27;;;3.40;99.90;;;;;;5074386;28;20479;-67
2021/01/11 11:07:50;;;;;;;17.80;16.50;;;3.40;99.90;;;;;;5073966;28;20920;-66
2021/01/11 11:10:16;;;;;;;17.20;16.00;;;3.50;99.90;;;;;;5073813;28;20447;-67
2021/01/11 11:12:42;;;;;;;17.30;16.10;;;3.60;99.90;;;;;;5073913;28;20795;-66
2021/01/11 11:15:10;;;;;;;16.93;15.73;;;3.60;99.90;;;;;;5072343;28;20466;-67
2021/01/11 11:17:36;;;;;;;18.13;16.83;;;3.60;99.90;;;;;;5073843;28;20552;-67
2021/01/11 11:20:03;;;;;;;16.57;15.17;;;3.60;99.90;;;;;;5073505;28;20454;-67
2021/01/11 11:22:29;;;;;;;17.13;15.73;;;3.60;99.90;;;;;;5073658;28;20443;-68
2021/01/11 11:24:56;;;;;;;18.67;17.27;;;3.50;99.90;;;;;;5073589;28;20489;-67
2021/01/11 11:27:23;;;;;;;17.37;15.97;;;3.50;99.90;;;;;;5073717;28;20530;-67
2021/01/11 11:29:51;;;;;;;18.30;16.57;;;3.50;99.90;;;;;;5073360;28;20443;-67
2021/01/11 11:32:17;;;;;;;19.23;17.57;;;3.50;99.90;;;;;;5073413;28;20955;-67
2021/01/11 11:34:44;;;;;;;18.50;17.17;;;3.60;99.90;;;;;;5073291;28;20467;-67
2021/01/11 11:37:10;;;;;;;16.97;15.77;;;3.60;99.90;;;;;;5073234;28;20517;-67
2021/01/11 11:39:36;;;;;;;19.73;18.03;;;3.60;99.90;;;;;;5073232;28;20447;-67
2021/01/11 11:42:03;;;;;;;18.10;16.60;;;3.60;99.90;;;;;;5073153;28;20443;-67
2021/01/11 11:44:29;;;;;;;20.23;18.73;;;3.60;99.90;;;;;;5073177;28;20462;-68
2021/01/11 11:46:56;;;;;;;16.43;15.23;;;3.70;99.90;;;;;;5073272;28;20439;-68
2021/01/11 11:49:22;;;;;;;17.93;16.70;;;3.70;99.90;;;;;;5073084;28;20443;-68
2021/01/11 11:51:48;;;;;;;18.27;16.80;;;3.70;99.90;;;;;;5072858;28;20439;-67
2021/01/11 11:54:15;;;;;;;17.40;16.27;;;3.70;99.90;;;;;;5072845;28;20467;-68
2021/01/11 11:56:41;;;;;;;18.83;17.20;;;3.70;99.90;;;;;;5073079;28;20479;-68
2021/01/11 11:59:09;;;;;;;17.00;15.70;;;3.70;99.90;;;;;;5073239;28;20450;-68
2021/01/11 12:01:37;;;;;;;17.13;15.90;;;3.80;99.90;;;;;;5072871;28;20454;-68
2021/01/11 12:04:03;;;;;;;18.13;16.73;;;3.80;99.90;;;;;;5072614;28;20478;-66
2021/01/11 12:06:43;;;;;;;16.73;15.23;;;3.90;99.90;;;;;;5072997;28;20873;-68
2021/01/11 12:09:10;;;;;;;19.07;17.57;;;3.90;99.90;;;;;;5072815;28;20439;-69
2021/01/11 12:11:44;;;;;;;17.43;15.87;;;3.90;99.90;;;;;;5072818;28;20446;-68
2021/01/11 12:14:12;;;;;;;17.37;16.17;;;3.90;99.90;;;;;;5072629;28;20467;-67
2021/01/11 12:16:38;;;;;;;17.57;16.30;;;3.90;99.90;;;;;;5072612;28;20528;-67
2021/01/11 12:19:05;;;;;;;18.10;16.67;;;3.90;99.90;;;;;;5072596;28;20959;-68
2021/01/11 12:21:33;;;;;;;18.20;16.80;;;3.90;99.90;;;;;;5072283;28;20451;-67
2021/01/11 12:23:59;;;;;;;17.87;16.43;;;3.90;99.90;;;;;;5072513;28;20972;-68
2021/01/11 12:26:26;;;;;;;18.37;16.80;;;3.90;99.90;;;;;;5072033;28;20451;-68
2021/01/11 12:28:52;;;;;;;16.90;15.73;;;3.90;99.90;;;;;;5072275;28;20445;-67
2021/01/11 12:31:26;;;;;;;18.40;16.90;;;3.90;99.90;;;;;;5072172;28;20945;-67
2021/01/11 12:33:52;;;;;;;18.20;16.80;;;3.90;99.90;;;;;;5072124;28;20473;-67
2021/01/11 12:36:22;;;;;;;18.23;16.83;;;3.90;99.90;;;;;;5064345;28;20879;-67
2021/01/11 12:38:49;;;;;;;17.33;16.03;;;3.90;99.90;;;;;;5060070;28;20451;-68
2021/01/11 12:41:17;;;;;;;16.60;15.47;;;3.90;99.90;;;;;;5059388;28;20454;-67
2021/01/11 12:43:43;;;;;;;17.70;16.40;;;3.90;99.90;;;;;;5059896;28;20467;-67